sensor_id;sensor_type;location;lat;lon;timestamp;P1;durP1;ratioP1;P2;durP2;ratioP2
31210;SDS011;17836;50.948;3.946;2023-02-28T00:02:17;6.60;;;6.05;;
31210;SDS011;17836;50.948;3.946;2023-02-28T00:04:42;8.27;;;6.30;;
31210;SDS011;17836;50.948;3.946;2023-02-28T00:07:08;12.43;;;7.10;;
31210;SDS011;17836;50.948;3.946;2023-02-28T00:09:33;6.53;;;5.95;;
31210;SDS011;17836;50.948;3.946;2023-02-28T00:11:58;8.95;;;6.40;;
31210;SDS011;17836;50.948;3.946;2023-02-28T00:14:24;8.55;;;6.55;;
31210;SDS011;17836;50.948;3.946;2023-02-28T00:16:52;8.43;;;5.85;;
31210;SDS011;17836;50.948;3.946;2023-02-28T00:19:17;8.52;;;6.63;;
31210;SDS011;17836;50.948;3.946;2023-02-28T00:21:42;9.90;;;6.72;;
31210;SDS011;17836;50.948;3.946;2023-02-28T00:24:10;10.73;;;6.65;;
31210;SDS011;17836;50.948;3.946;2023-02-28T00:26:35;9.02;;;7.10;;
31210;SDS011;17836;50.948;3.946;2023-02-28T00:29:01;8.05;;;6.07;;
31210;SDS011;17836;50.948;3.946;2023-02-28T00:31:26;7.93;;;7.10;;
31210;SDS011;17836;50.948;3.946;2023-02-28T00:33:51;6.85;;;6.05;;
31210;SDS011;17836;50.948;3.946;2023-02-28T00:36:17;8.55;;;6.40;;
31210;SDS011;17836;50.948;3.946;2023-02-28T00:38:48;9.50;;;6.82;;
31210;SDS011;17836;50.948;3.946;2023-02-28T00:43:38;6.88;;;6.22;;
31210;SDS011;17836;50.948;3.946;2023-02-28T00:46:04;8.15;;;6.82;;
31210;SDS011;17836;50.948;3.946;2023-02-28T00:48:29;8.57;;;6.88;;
31210;SDS011;17836;50.948;3.946;2023-02-28T00:50:54;7.15;;;6.15;;
31210;SDS011;17836;50.948;3.946;2023-02-28T00:53:20;8.40;;;6.60;;
31210;SDS011;17836;50.948;3.946;2023-02-28T00:55:45;12.48;;;7.90;;
31210;SDS011;17836;50.948;3.946;2023-02-28T00:58:10;8.88;;;7.63;;
31210;SDS011;17836;50.948;3.946;2023-02-28T01:00:36;10.00;;;7.32;;
31210;SDS011;17836;50.948;3.946;2023-02-28T01:03:01;9.38;;;7.97;;
31210;SDS011;17836;50.948;3.946;2023-02-28T01:05:26;8.10;;;7.25;;
31210;SDS011;17836;50.948;3.946;2023-02-28T01:07:52;12.55;;;7.22;;
31210;SDS011;17836;50.948;3.946;2023-02-28T01:10:17;9.65;;;7.10;;
31210;SDS011;17836;50.948;3.946;2023-02-28T01:12:42;9.13;;;7.38;;
31210;SDS011;17836;50.948;3.946;2023-02-28T01:15:09;12.23;;;7.10;;
31210;SDS011;17836;50.948;3.946;2023-02-28T01:17:35;8.13;;;6.95;;
31210;SDS011;17836;50.948;3.946;2023-02-28T01:20:01;9.98;;;6.90;;
31210;SDS011;17836;50.948;3.946;2023-02-28T01:22:26;7.97;;;7.25;;
31210;SDS011;17836;50.948;3.946;2023-02-28T01:24:52;15.18;;;7.88;;
31210;SDS011;17836;50.948;3.946;2023-02-28T01:27:17;12.07;;;7.65;;
31210;SDS011;17836;50.948;3.946;2023-02-28T01:29:42;9.20;;;7.60;;
31210;SDS011;17836;50.948;3.946;2023-02-28T01:32:08;9.98;;;7.53;;
31210;SDS011;17836;50.948;3.946;2023-02-28T01:34:33;8.50;;;7.60;;
31210;SDS011;17836;50.948;3.946;2023-02-28T01:36:58;8.15;;;7.35;;
31210;SDS011;17836;50.948;3.946;2023-02-28T01:39:24;8.10;;;7.35;;
31210;SDS011;17836;50.948;3.946;2023-02-28T01:41:50;11.90;;;7.65;;
31210;SDS011;17836;50.948;3.946;2023-02-28T01:47:01;13.05;;;8.15;;
31210;SDS011;17836;50.948;3.946;2023-02-28T01:49:26;10.05;;;7.65;;
31210;SDS011;17836;50.948;3.946;2023-02-28T01:51:53;8.40;;;6.82;;
31210;SDS011;17836;50.948;3.946;2023-02-28T01:54:21;9.98;;;6.90;;
31210;SDS011;17836;50.948;3.946;2023-02-28T01:56:48;15.20;;;7.45;;
31210;SDS011;17836;50.948;3.946;2023-02-28T01:59:18;8.60;;;7.75;;
31210;SDS011;17836;50.948;3.946;2023-02-28T02:01:45;8.23;;;7.38;;
31210;SDS011;17836;50.948;3.946;2023-02-28T02:04:11;11.25;;;8.15;;
31210;SDS011;17836;50.948;3.946;2023-02-28T02:06:43;8.50;;;7.72;;
31210;SDS011;17836;50.948;3.946;2023-02-28T02:09:09;7.60;;;6.95;;
31210;SDS011;17836;50.948;3.946;2023-02-28T02:11:34;14.10;;;8.30;;
31210;SDS011;17836;50.948;3.946;2023-02-28T02:18:58;8.27;;;7.47;;
31210;SDS011;17836;50.948;3.946;2023-02-28T02:26:52;11.43;;;7.75;;
31210;SDS011;17836;50.948;3.946;2023-02-28T02:31:54;9.80;;;8.70;;
31210;SDS011;17836;50.948;3.946;2023-02-28T02:36:51;9.38;;;8.30;;
31210;SDS011;17836;50.948;3.946;2023-02-28T02:41:48;10.48;;;8.45;;
31210;SDS011;17836;50.948;3.946;2023-02-28T02:44:23;10.18;;;7.95;;
31210;SDS011;17836;50.948;3.946;2023-02-28T02:46:50;8.95;;;8.05;;
31210;SDS011;17836;50.948;3.946;2023-02-28T02:49:24;11.65;;;9.13;;
31210;SDS011;17836;50.948;3.946;2023-02-28T02:51:51;11.02;;;8.13;;
31210;SDS011;17836;50.948;3.946;2023-02-28T02:54:19;10.98;;;8.30;;
31210;SDS011;17836;50.948;3.946;2023-02-28T02:56:46;10.88;;;8.98;;
31210;SDS011;17836;50.948;3.946;2023-02-28T02:59:12;9.57;;;8.63;;
31210;SDS011;17836;50.948;3.946;2023-02-28T03:01:38;10.95;;;8.38;;
31210;SDS011;17836;50.948;3.946;2023-02-28T03:04:06;9.43;;;8.43;;
31210;SDS011;17836;50.948;3.946;2023-02-28T03:06:32;12.68;;;8.45;;
31210;SDS011;17836;50.948;3.946;2023-02-28T03:08:59;12.43;;;8.10;;
31210;SDS011;17836;50.948;3.946;2023-02-28T03:11:25;12.15;;;8.73;;
31210;SDS011;17836;50.948;3.946;2023-02-28T03:21:40;14.32;;;10.13;;
31210;SDS011;17836;50.948;3.946;2023-02-28T03:24:11;11.80;;;9.02;;
31210;SDS011;17836;50.948;3.946;2023-02-28T03:26:39;12.88;;;8.90;;
31210;SDS011;17836;50.948;3.946;2023-02-28T03:29:13;13.45;;;8.82;;
31210;SDS011;17836;50.948;3.946;2023-02-28T03:31:50;11.80;;;9.65;;
31210;SDS011;17836;50.948;3.946;2023-02-28T03:34:19;10.68;;;9.13;;
31210;SDS011;17836;50.948;3.946;2023-02-28T03:36:48;12.90;;;9.23;;
31210;SDS011;17836;50.948;3.946;2023-02-28T03:39:15;9.65;;;8.65;;
31210;SDS011;17836;50.948;3.946;2023-02-28T03:41:47;9.77;;;8.88;;
31210;SDS011;17836;50.948;3.946;2023-02-28T03:44:19;9.63;;;8.50;;
31210;SDS011;17836;50.948;3.946;2023-02-28T03:46:48;11.35;;;8.70;;
31210;SDS011;17836;50.948;3.946;2023-02-28T03:49:16;10.57;;;8.93;;
31210;SDS011;17836;50.948;3.946;2023-02-28T03:51:42;9.70;;;8.70;;
31210;SDS011;17836;50.948;3.946;2023-02-28T03:54:11;8.98;;;8.15;;
31210;SDS011;17836;50.948;3.946;2023-02-28T03:56:38;10.45;;;8.57;;
31210;SDS011;17836;50.948;3.946;2023-02-28T04:01:57;15.13;;;9.52;;
31210;SDS011;17836;50.948;3.946;2023-02-28T04:04:23;13.10;;;9.52;;
31210;SDS011;17836;50.948;3.946;2023-02-28T04:06:49;10.05;;;8.77;;
31210;SDS011;17836;50.948;3.946;2023-02-28T04:09:15;11.00;;;9.70;;
31210;SDS011;17836;50.948;3.946;2023-02-28T04:11:42;10.43;;;9.02;;
31210;SDS011;17836;50.948;3.946;2023-02-28T04:14:08;10.27;;;9.05;;
31210;SDS011;17836;50.948;3.946;2023-02-28T04:16:34;13.35;;;9.75;;
31210;SDS011;17836;50.948;3.946;2023-02-28T04:18:59;10.00;;;9.10;;
31210;SDS011;17836;50.948;3.946;2023-02-28T04:21:32;11.32;;;9.65;;
31210;SDS011;17836;50.948;3.946;2023-02-28T04:23:58;10.93;;;9.35;;
31210;SDS011;17836;50.948;3.946;2023-02-28T04:26:35;9.45;;;8.55;;
31210;SDS011;17836;50.948;3.946;2023-02-28T04:29:01;11.80;;;8.77;;
31210;SDS011;17836;50.948;3.946;2023-02-28T04:31:27;11.43;;;9.88;;
31210;SDS011;17836;50.948;3.946;2023-02-28T04:33:52;11.52;;;8.98;;
31210;SDS011;17836;50.948;3.946;2023-02-28T04:36:17;13.55;;;9.70;;
31210;SDS011;17836;50.948;3.946;2023-02-28T04:38:43;13.77;;;9.43;;
31210;SDS011;17836;50.948;3.946;2023-02-28T04:41:08;11.55;;;9.45;;
31210;SDS011;17836;50.948;3.946;2023-02-28T04:43:33;10.32;;;9.35;;
31210;SDS011;17836;50.948;3.946;2023-02-28T04:46:00;18.80;;;9.90;;
31210;SDS011;17836;50.948;3.946;2023-02-28T04:48:29;15.13;;;11.05;;
31210;SDS011;17836;50.948;3.946;2023-02-28T04:50:55;12.27;;;10.05;;
31210;SDS011;17836;50.948;3.946;2023-02-28T04:53:24;14.15;;;10.70;;
31210;SDS011;17836;50.948;3.946;2023-02-28T04:55:49;12.75;;;9.80;;
31210;SDS011;17836;50.948;3.946;2023-02-28T04:58:15;14.70;;;9.88;;
31210;SDS011;17836;50.948;3.946;2023-02-28T05:00:41;13.52;;;10.10;;
31210;SDS011;17836;50.948;3.946;2023-02-28T05:03:06;16.60;;;10.63;;
31210;SDS011;17836;50.948;3.946;2023-02-28T05:05:32;11.57;;;10.27;;
31210;SDS011;17836;50.948;3.946;2023-02-28T05:07:57;13.35;;;9.27;;
31210;SDS011;17836;50.948;3.946;2023-02-28T05:10:22;10.25;;;9.23;;
31210;SDS011;17836;50.948;3.946;2023-02-28T05:12:47;15.85;;;9.52;;
31210;SDS011;17836;50.948;3.946;2023-02-28T05:15:13;11.23;;;9.43;;
31210;SDS011;17836;50.948;3.946;2023-02-28T05:17:39;9.38;;;8.45;;
31210;SDS011;17836;50.948;3.946;2023-02-28T05:20:05;10.10;;;8.93;;
31210;SDS011;17836;50.948;3.946;2023-02-28T05:22:30;17.15;;;9.57;;
31210;SDS011;17836;50.948;3.946;2023-02-28T05:24:56;9.82;;;8.80;;
31210;SDS011;17836;50.948;3.946;2023-02-28T05:27:21;12.10;;;8.52;;
31210;SDS011;17836;50.948;3.946;2023-02-28T05:29:46;13.38;;;9.23;;
31210;SDS011;17836;50.948;3.946;2023-02-28T05:32:12;11.10;;;8.35;;
31210;SDS011;17836;50.948;3.946;2023-02-28T05:34:37;9.13;;;8.00;;
31210;SDS011;17836;50.948;3.946;2023-02-28T05:37:03;9.45;;;8.40;;
31210;SDS011;17836;50.948;3.946;2023-02-28T05:39:29;15.77;;;8.57;;
31210;SDS011;17836;50.948;3.946;2023-02-28T05:41:54;9.82;;;8.30;;
31210;SDS011;17836;50.948;3.946;2023-02-28T05:44:19;9.68;;;8.30;;
31210;SDS011;17836;50.948;3.946;2023-02-28T05:46:45;11.23;;;7.60;;
31210;SDS011;17836;50.948;3.946;2023-02-28T05:49:10;9.88;;;8.40;;
31210;SDS011;17836;50.948;3.946;2023-02-28T05:51:35;9.98;;;8.95;;
31210;SDS011;17836;50.948;3.946;2023-02-28T05:54:05;10.63;;;9.20;;
31210;SDS011;17836;50.948;3.946;2023-02-28T05:56:30;10.93;;;8.30;;
31210;SDS011;17836;50.948;3.946;2023-02-28T05:58:56;11.25;;;9.00;;
31210;SDS011;17836;50.948;3.946;2023-02-28T06:01:23;13.68;;;8.65;;
31210;SDS011;17836;50.948;3.946;2023-02-28T06:03:49;13.32;;;9.18;;
31210;SDS011;17836;50.948;3.946;2023-02-28T06:06:14;11.77;;;8.27;;
31210;SDS011;17836;50.948;3.946;2023-02-28T06:08:40;10.60;;;8.82;;
31210;SDS011;17836;50.948;3.946;2023-02-28T06:11:05;9.30;;;8.52;;
31210;SDS011;17836;50.948;3.946;2023-02-28T06:13:31;9.88;;;8.57;;
31210;SDS011;17836;50.948;3.946;2023-02-28T06:15:57;8.98;;;7.93;;
31210;SDS011;17836;50.948;3.946;2023-02-28T06:18:25;12.35;;;9.60;;
31210;SDS011;17836;50.948;3.946;2023-02-28T06:20:53;11.85;;;9.00;;
31210;SDS011;17836;50.948;3.946;2023-02-28T06:23:19;14.43;;;8.80;;
31210;SDS011;17836;50.948;3.946;2023-02-28T06:25:45;11.35;;;9.02;;
31210;SDS011;17836;50.948;3.946;2023-02-28T06:28:10;12.13;;;9.52;;
31210;SDS011;17836;50.948;3.946;2023-02-28T06:30:37;9.88;;;8.70;;
31210;SDS011;17836;50.948;3.946;2023-02-28T06:33:02;10.32;;;8.52;;
31210;SDS011;17836;50.948;3.946;2023-02-28T06:35:27;12.75;;;8.77;;
31210;SDS011;17836;50.948;3.946;2023-02-28T06:37:53;10.43;;;9.18;;
31210;SDS011;17836;50.948;3.946;2023-02-28T06:40:18;11.88;;;9.07;;
31210;SDS011;17836;50.948;3.946;2023-02-28T06:42:43;9.57;;;8.02;;
31210;SDS011;17836;50.948;3.946;2023-02-28T06:45:09;10.55;;;7.97;;
31210;SDS011;17836;50.948;3.946;2023-02-28T06:47:35;15.27;;;8.48;;
31210;SDS011;17836;50.948;3.946;2023-02-28T06:50:01;9.65;;;7.90;;
31210;SDS011;17836;50.948;3.946;2023-02-28T06:52:26;17.75;;;9.10;;
31210;SDS011;17836;50.948;3.946;2023-02-28T06:54:52;12.57;;;8.82;;
31210;SDS011;17836;50.948;3.946;2023-02-28T06:57:25;9.93;;;8.77;;
31210;SDS011;17836;50.948;3.946;2023-02-28T06:59:52;13.98;;;8.55;;
31210;SDS011;17836;50.948;3.946;2023-02-28T07:02:17;23.70;;;12.63;;
31210;SDS011;17836;50.948;3.946;2023-02-28T07:04:42;28.30;;;16.05;;
31210;SDS011;17836;50.948;3.946;2023-02-28T07:07:09;21.42;;;12.35;;
31210;SDS011;17836;50.948;3.946;2023-02-28T07:09:35;17.30;;;10.70;;
31210;SDS011;17836;50.948;3.946;2023-02-28T07:12:01;14.73;;;9.45;;
31210;SDS011;17836;50.948;3.946;2023-02-28T07:14:26;23.80;;;12.50;;
31210;SDS011;17836;50.948;3.946;2023-02-28T07:16:52;45.38;;;20.05;;
31210;SDS011;17836;50.948;3.946;2023-02-28T07:19:18;81.57;;;34.95;;
31210;SDS011;17836;50.948;3.946;2023-02-28T07:21:43;48.67;;;24.17;;
31210;SDS011;17836;50.948;3.946;2023-02-28T07:24:09;12.90;;;10.32;;
31210;SDS011;17836;50.948;3.946;2023-02-28T07:26:34;10.73;;;9.60;;
31210;SDS011;17836;50.948;3.946;2023-02-28T07:28:59;15.48;;;12.95;;
31210;SDS011;17836;50.948;3.946;2023-02-28T07:31:25;11.65;;;9.98;;
31210;SDS011;17836;50.948;3.946;2023-02-28T07:33:50;14.70;;;8.65;;
31210;SDS011;17836;50.948;3.946;2023-02-28T07:36:16;10.68;;;8.40;;
31210;SDS011;17836;50.948;3.946;2023-02-28T07:38:43;10.10;;;9.02;;
31210;SDS011;17836;50.948;3.946;2023-02-28T07:41:09;12.43;;;9.07;;
31210;SDS011;17836;50.948;3.946;2023-02-28T07:43:34;24.95;;;9.93;;
31210;SDS011;17836;50.948;3.946;2023-02-28T07:46:10;12.23;;;8.60;;
31210;SDS011;17836;50.948;3.946;2023-02-28T07:48:35;10.18;;;8.13;;
31210;SDS011;17836;50.948;3.946;2023-02-28T07:51:01;12.18;;;8.90;;
31210;SDS011;17836;50.948;3.946;2023-02-28T07:53:27;11.00;;;8.13;;
31210;SDS011;17836;50.948;3.946;2023-02-28T07:55:56;9.98;;;7.97;;
31210;SDS011;17836;50.948;3.946;2023-02-28T07:58:21;9.05;;;8.15;;
31210;SDS011;17836;50.948;3.946;2023-02-28T08:00:47;13.90;;;8.10;;
31210;SDS011;17836;50.948;3.946;2023-02-28T08:03:12;9.63;;;8.55;;
31210;SDS011;17836;50.948;3.946;2023-02-28T08:05:38;11.93;;;7.45;;
31210;SDS011;17836;50.948;3.946;2023-02-28T08:08:04;13.88;;;9.80;;
31210;SDS011;17836;50.948;3.946;2023-02-28T08:10:29;10.02;;;7.57;;
31210;SDS011;17836;50.948;3.946;2023-02-28T08:12:54;10.35;;;7.97;;
31210;SDS011;17836;50.948;3.946;2023-02-28T08:15:22;13.45;;;8.30;;
31210;SDS011;17836;50.948;3.946;2023-02-28T08:17:47;8.82;;;7.70;;
31210;SDS011;17836;50.948;3.946;2023-02-28T08:20:13;10.52;;;7.00;;
31210;SDS011;17836;50.948;3.946;2023-02-28T08:22:38;9.25;;;6.85;;
31210;SDS011;17836;50.948;3.946;2023-02-28T08:25:03;7.57;;;6.85;;
31210;SDS011;17836;50.948;3.946;2023-02-28T08:27:29;7.22;;;6.57;;
31210;SDS011;17836;50.948;3.946;2023-02-28T08:29:54;12.73;;;7.82;;
31210;SDS011;17836;50.948;3.946;2023-02-28T08:32:19;9.55;;;7.43;;
31210;SDS011;17836;50.948;3.946;2023-02-28T08:34:45;10.15;;;8.38;;
31210;SDS011;17836;50.948;3.946;2023-02-28T08:37:10;12.15;;;7.63;;
31210;SDS011;17836;50.948;3.946;2023-02-28T08:39:36;9.65;;;7.10;;
31210;SDS011;17836;50.948;3.946;2023-02-28T08:42:02;8.50;;;7.53;;
31210;SDS011;17836;50.948;3.946;2023-02-28T08:44:28;8.45;;;6.65;;
31210;SDS011;17836;50.948;3.946;2023-02-28T08:46:53;8.00;;;6.18;;
31210;SDS011;17836;50.948;3.946;2023-02-28T08:49:18;6.80;;;5.38;;
31210;SDS011;17836;50.948;3.946;2023-02-28T08:51:44;7.43;;;5.88;;
31210;SDS011;17836;50.948;3.946;2023-02-28T08:54:09;9.07;;;5.95;;
31210;SDS011;17836;50.948;3.946;2023-02-28T08:56:38;9.40;;;6.00;;
31210;SDS011;17836;50.948;3.946;2023-02-28T08:59:03;5.28;;;4.43;;
31210;SDS011;17836;50.948;3.946;2023-02-28T09:01:29;5.15;;;4.53;;
31210;SDS011;17836;50.948;3.946;2023-02-28T09:03:56;6.47;;;5.30;;
31210;SDS011;17836;50.948;3.946;2023-02-28T09:06:23;4.75;;;4.25;;
31210;SDS011;17836;50.948;3.946;2023-02-28T09:08:48;4.80;;;3.25;;
31210;SDS011;17836;50.948;3.946;2023-02-28T09:11:14;4.85;;;2.90;;
31210;SDS011;17836;50.948;3.946;2023-02-28T09:13:40;4.53;;;2.88;;
31210;SDS011;17836;50.948;3.946;2023-02-28T09:16:06;3.65;;;3.25;;
31210;SDS011;17836;50.948;3.946;2023-02-28T09:18:33;3.60;;;3.17;;
31210;SDS011;17836;50.948;3.946;2023-02-28T09:20:58;3.38;;;3.08;;
31210;SDS011;17836;50.948;3.946;2023-02-28T09:23:24;3.10;;;2.80;;
31210;SDS011;17836;50.948;3.946;2023-02-28T09:25:51;4.72;;;3.05;;
31210;SDS011;17836;50.948;3.946;2023-02-28T09:28:16;3.78;;;2.92;;
31210;SDS011;17836;50.948;3.946;2023-02-28T09:30:44;3.28;;;2.83;;
31210;SDS011;17836;50.948;3.946;2023-02-28T09:33:09;2.47;;;2.28;;
31210;SDS011;17836;50.948;3.946;2023-02-28T09:35:35;3.28;;;2.70;;
31210;SDS011;17836;50.948;3.946;2023-02-28T09:38:02;7.07;;;3.13;;
31210;SDS011;17836;50.948;3.946;2023-02-28T09:40:27;3.55;;;3.25;;
31210;SDS011;17836;50.948;3.946;2023-02-28T09:42:53;4.38;;;2.58;;
31210;SDS011;17836;50.948;3.946;2023-02-28T09:45:36;3.20;;;2.90;;
31210;SDS011;17836;50.948;3.946;2023-02-28T09:50:41;4.63;;;2.58;;
31210;SDS011;17836;50.948;3.946;2023-02-28T09:53:51;3.50;;;2.67;;
31210;SDS011;17836;50.948;3.946;2023-02-28T09:56:01;3.80;;;2.65;;
31210;SDS011;17836;50.948;3.946;2023-02-28T09:58:39;3.72;;;2.72;;
31210;SDS011;17836;50.948;3.946;2023-02-28T10:03:55;2.42;;;2.22;;
31210;SDS011;17836;50.948;3.946;2023-02-28T10:06:22;3.80;;;3.25;;
31210;SDS011;17836;50.948;3.946;2023-02-28T10:09:03;5.03;;;3.13;;
31210;SDS011;17836;50.948;3.946;2023-02-28T10:11:30;3.13;;;2.83;;
31210;SDS011;17836;50.948;3.946;2023-02-28T10:14:02;3.60;;;2.90;;
31210;SDS011;17836;50.948;3.946;2023-02-28T10:16:37;3.40;;;2.88;;
31210;SDS011;17836;50.948;3.946;2023-02-28T10:19:22;4.53;;;2.50;;
31210;SDS011;17836;50.948;3.946;2023-02-28T10:21:56;7.07;;;6.10;;
31210;SDS011;17836;50.948;3.946;2023-02-28T10:24:26;5.10;;;2.55;;
31210;SDS011;17836;50.948;3.946;2023-02-28T10:26:53;3.85;;;2.40;;
31210;SDS011;17836;50.948;3.946;2023-02-28T10:29:22;2.90;;;2.28;;
31210;SDS011;17836;50.948;3.946;2023-02-28T10:31:47;3.17;;;2.00;;
31210;SDS011;17836;50.948;3.946;2023-02-28T10:34:12;2.33;;;1.80;;
31210;SDS011;17836;50.948;3.946;2023-02-28T10:36:38;2.85;;;2.42;;
31210;SDS011;17836;50.948;3.946;2023-02-28T10:39:33;3.08;;;1.80;;
31210;SDS011;17836;50.948;3.946;2023-02-28T10:41:49;4.45;;;2.05;;
31210;SDS011;17836;50.948;3.946;2023-02-28T10:44:21;2.28;;;1.90;;
31210;SDS011;17836;50.948;3.946;2023-02-28T10:46:48;2.53;;;1.70;;
31210;SDS011;17836;50.948;3.946;2023-02-28T10:49:14;5.80;;;2.83;;
31210;SDS011;17836;50.948;3.946;2023-02-28T10:51:42;3.63;;;2.20;;
31210;SDS011;17836;50.948;3.946;2023-02-28T10:54:18;2.45;;;1.98;;
31210;SDS011;17836;50.948;3.946;2023-02-28T10:56:44;2.00;;;1.70;;
31210;SDS011;17836;50.948;3.946;2023-02-28T10:59:24;1.70;;;1.60;;
31210;SDS011;17836;50.948;3.946;2023-02-28T11:01:51;2.92;;;2.17;;
31210;SDS011;17836;50.948;3.946;2023-02-28T11:07:01;3.22;;;2.13;;
31210;SDS011;17836;50.948;3.946;2023-02-28T11:09:33;5.28;;;3.13;;
31210;SDS011;17836;50.948;3.946;2023-02-28T11:12:00;2.33;;;1.92;;
31210;SDS011;17836;50.948;3.946;2023-02-28T11:14:30;2.78;;;2.00;;
31210;SDS011;17836;50.948;3.946;2023-02-28T11:19:26;4.20;;;2.25;;
31210;SDS011;17836;50.948;3.946;2023-02-28T11:21:57;2.28;;;1.90;;
31210;SDS011;17836;50.948;3.946;2023-02-28T11:24:25;2.17;;;2.00;;
31210;SDS011;17836;50.948;3.946;2023-02-28T11:26:52;2.47;;;1.52;;
31210;SDS011;17836;50.948;3.946;2023-02-28T11:32:01;2.50;;;2.30;;
31210;SDS011;17836;50.948;3.946;2023-02-28T11:34:29;2.83;;;2.42;;
31210;SDS011;17836;50.948;3.946;2023-02-28T11:36:55;2.15;;;1.60;;
31210;SDS011;17836;50.948;3.946;2023-02-28T11:39:21;2.92;;;2.03;;
31210;SDS011;17836;50.948;3.946;2023-02-28T12:05:21;2.92;;;2.03;;
31210;SDS011;17836;50.948;3.946;2023-02-28T12:07:54;1.83;;;1.50;;
31210;SDS011;17836;50.948;3.946;2023-02-28T12:10:29;2.22;;;2.03;;
31210;SDS011;17836;50.948;3.946;2023-02-28T12:25:50;2.10;;;1.80;;
31210;SDS011;17836;50.948;3.946;2023-02-28T12:28:18;3.13;;;1.92;;
31210;SDS011;17836;50.948;3.946;2023-02-28T12:30:56;2.47;;;2.28;;
31210;SDS011;17836;50.948;3.946;2023-02-28T12:33:24;2.38;;;1.95;;
31210;SDS011;17836;50.948;3.946;2023-02-28T12:35:55;2.65;;;2.33;;
31210;SDS011;17836;50.948;3.946;2023-02-28T12:38:34;2.47;;;2.15;;
31210;SDS011;17836;50.948;3.946;2023-02-28T12:41:02;2.10;;;1.92;;
31210;SDS011;17836;50.948;3.946;2023-02-28T12:46:27;2.97;;;2.13;;
31210;SDS011;17836;50.948;3.946;2023-02-28T12:48:59;3.35;;;1.73;;
31210;SDS011;17836;50.948;3.946;2023-02-28T12:51:33;6.40;;;1.80;;
31210;SDS011;17836;50.948;3.946;2023-02-28T12:54:19;2.35;;;1.92;;
31210;SDS011;17836;50.948;3.946;2023-02-28T12:57:02;3.25;;;2.40;;
31210;SDS011;17836;50.948;3.946;2023-02-28T12:59:38;3.75;;;1.90;;
31210;SDS011;17836;50.948;3.946;2023-02-28T13:10:02;3.33;;;2.10;;
31210;SDS011;17836;50.948;3.946;2023-02-28T13:12:28;2.28;;;2.08;;
31210;SDS011;17836;50.948;3.946;2023-02-28T13:17:58;2.35;;;2.00;;
31210;SDS011;17836;50.948;3.946;2023-02-28T13:22:50;2.15;;;1.95;;
31210;SDS011;17836;50.948;3.946;2023-02-28T13:28:00;2.65;;;1.85;;
31210;SDS011;17836;50.948;3.946;2023-02-28T13:33:23;3.72;;;2.15;;
31210;SDS011;17836;50.948;3.946;2023-02-28T13:35:51;2.28;;;2.03;;
31210;SDS011;17836;50.948;3.946;2023-02-28T13:38:31;3.80;;;1.90;;
31210;SDS011;17836;50.948;3.946;2023-02-28T13:41:21;2.17;;;1.77;;
31210;SDS011;17836;50.948;3.946;2023-02-28T13:46:27;2.25;;;1.98;;
31210;SDS011;17836;50.948;3.946;2023-02-28T13:48:54;3.70;;;2.63;;
31210;SDS011;17836;50.948;3.946;2023-02-28T13:51:27;1.98;;;1.80;;
31210;SDS011;17836;50.948;3.946;2023-02-28T13:53:59;2.72;;;2.50;;
31210;SDS011;17836;50.948;3.946;2023-02-28T13:56:31;2.60;;;1.98;;
31210;SDS011;17836;50.948;3.946;2023-02-28T13:59:04;4.45;;;2.88;;
31210;SDS011;17836;50.948;3.946;2023-02-28T14:01:35;2.47;;;2.15;;
31210;SDS011;17836;50.948;3.946;2023-02-28T14:06:49;4.45;;;2.92;;
31210;SDS011;17836;50.948;3.946;2023-02-28T14:09:37;3.92;;;2.40;;
31210;SDS011;17836;50.948;3.946;2023-02-28T14:17:15;3.90;;;2.73;;
31210;SDS011;17836;50.948;3.946;2023-02-28T14:19:43;2.65;;;2.33;;
31210;SDS011;17836;50.948;3.946;2023-02-28T14:24:59;4.20;;;2.60;;
31210;SDS011;17836;50.948;3.946;2023-02-28T14:32:51;2.72;;;2.50;;
31210;SDS011;17836;50.948;3.946;2023-02-28T14:38:19;3.22;;;3.00;;
31210;SDS011;17836;50.948;3.946;2023-02-28T14:40:46;3.25;;;2.95;;
31210;SDS011;17836;50.948;3.946;2023-02-28T14:43:20;3.20;;;2.88;;
31210;SDS011;17836;50.948;3.946;2023-02-28T14:46:01;6.65;;;3.95;;
31210;SDS011;17836;50.948;3.946;2023-02-28T14:48:26;3.13;;;2.53;;
31210;SDS011;17836;50.948;3.946;2023-02-28T14:50:56;5.82;;;2.75;;
31210;SDS011;17836;50.948;3.946;2023-02-28T14:56:30;3.42;;;2.72;;
31210;SDS011;17836;50.948;3.946;2023-02-28T14:58:57;3.00;;;2.70;;
31210;SDS011;17836;50.948;3.946;2023-02-28T15:01:23;2.90;;;2.53;;
31210;SDS011;17836;50.948;3.946;2023-02-28T15:03:56;6.55;;;3.72;;
31210;SDS011;17836;50.948;3.946;2023-02-28T15:06:22;3.30;;;3.00;;
31210;SDS011;17836;50.948;3.946;2023-02-28T15:08:48;3.17;;;2.90;;
31210;SDS011;17836;50.948;3.946;2023-02-28T15:11:31;4.25;;;3.40;;
31210;SDS011;17836;50.948;3.946;2023-02-28T15:13:56;4.93;;;2.72;;
31210;SDS011;17836;50.948;3.946;2023-02-28T15:16:23;5.18;;;2.70;;
31210;SDS011;17836;50.948;3.946;2023-02-28T15:18:51;3.83;;;3.47;;
31210;SDS011;17836;50.948;3.946;2023-02-28T15:21:21;4.70;;;3.25;;
31210;SDS011;17836;50.948;3.946;2023-02-28T15:26:41;2.90;;;2.67;;
31210;SDS011;17836;50.948;3.946;2023-02-28T15:29:12;4.57;;;3.15;;
31210;SDS011;17836;50.948;3.946;2023-02-28T15:31:49;6.18;;;4.20;;
31210;SDS011;17836;50.948;3.946;2023-02-28T15:34:22;2.75;;;2.55;;
31210;SDS011;17836;50.948;3.946;2023-02-28T15:36:47;3.05;;;2.78;;
31210;SDS011;17836;50.948;3.946;2023-02-28T15:39:20;3.33;;;3.03;;
31210;SDS011;17836;50.948;3.946;2023-02-28T15:41:46;5.63;;;3.67;;
31210;SDS011;17836;50.948;3.946;2023-02-28T15:46:50;5.97;;;3.60;;
31210;SDS011;17836;50.948;3.946;2023-02-28T15:49:19;5.20;;;2.85;;
31210;SDS011;17836;50.948;3.946;2023-02-28T15:51:44;4.03;;;3.00;;
31210;SDS011;17836;50.948;3.946;2023-02-28T15:54:15;5.07;;;3.08;;
31210;SDS011;17836;50.948;3.946;2023-02-28T15:56:46;5.47;;;4.15;;
31210;SDS011;17836;50.948;3.946;2023-02-28T15:59:16;5.30;;;4.38;;
31210;SDS011;17836;50.948;3.946;2023-02-28T16:01:42;4.90;;;4.25;;
31210;SDS011;17836;50.948;3.946;2023-02-28T16:04:15;5.20;;;3.92;;
31210;SDS011;17836;50.948;3.946;2023-02-28T16:06:41;3.65;;;3.33;;
31210;SDS011;17836;50.948;3.946;2023-02-28T16:09:09;4.95;;;4.10;;
31210;SDS011;17836;50.948;3.946;2023-02-28T16:11:36;5.20;;;3.15;;
31210;SDS011;17836;50.948;3.946;2023-02-28T16:14:03;6.00;;;3.10;;
31210;SDS011;17836;50.948;3.946;2023-02-28T16:16:29;6.68;;;3.00;;
31210;SDS011;17836;50.948;3.946;2023-02-28T16:18:56;3.53;;;2.72;;
31210;SDS011;17836;50.948;3.946;2023-02-28T16:21:21;3.65;;;2.92;;
31210;SDS011;17836;50.948;3.946;2023-02-28T16:23:48;4.82;;;4.13;;
31210;SDS011;17836;50.948;3.946;2023-02-28T16:26:16;5.90;;;2.97;;
31210;SDS011;17836;50.948;3.946;2023-02-28T16:28:43;3.28;;;2.67;;
31210;SDS011;17836;50.948;3.946;2023-02-28T16:31:09;3.88;;;2.97;;
31210;SDS011;17836;50.948;3.946;2023-02-28T16:33:41;3.70;;;2.80;;
31210;SDS011;17836;50.948;3.946;2023-02-28T16:36:06;4.15;;;3.15;;
31210;SDS011;17836;50.948;3.946;2023-02-28T16:38:34;7.07;;;4.15;;
31210;SDS011;17836;50.948;3.946;2023-02-28T16:41:00;3.55;;;3.10;;
31210;SDS011;17836;50.948;3.946;2023-02-28T16:43:26;4.25;;;2.95;;
31210;SDS011;17836;50.948;3.946;2023-02-28T16:45:55;4.35;;;3.95;;
31210;SDS011;17836;50.948;3.946;2023-02-28T16:48:23;3.47;;;3.15;;
31210;SDS011;17836;50.948;3.946;2023-02-28T16:50:49;4.80;;;3.22;;
31210;SDS011;17836;50.948;3.946;2023-02-28T16:53:15;3.90;;;3.20;;
31210;SDS011;17836;50.948;3.946;2023-02-28T16:55:40;4.10;;;2.95;;
31210;SDS011;17836;50.948;3.946;2023-02-28T16:58:06;4.70;;;3.40;;
31210;SDS011;17836;50.948;3.946;2023-02-28T17:00:32;6.03;;;3.67;;
31210;SDS011;17836;50.948;3.946;2023-02-28T17:02:58;4.13;;;3.72;;